Time;durP1;ratioP1;P1;durP2;ratioP2;P2;SDS_P1;SDS_P2;PMS_P1;PMS_P2;Temp;Humidity;BMP_temperature;BMP_pressure;BME280_temperature;BME280_humidity;BME280_pressure;Samples;Min_cycle;Max_cycle;Signal;HPM_P1;HPM_P2
2022/04/01 01:04:12;;;;;;;;;;;;;;;;;;;;;
2022/04/01 01:07:01;;;;;;;14.40;12.50;;;;;;;;;;4935326;29;20258;-93
2022/04/01 01:09:27;;;;;;;14.55;13.57;;;;;;;;;;4905264;29;20432;-88
2022/04/01 01:11:54;;;;;;;15.75;14.45;;;;;;;;;;4906602;29;20239;-90
2022/04/01 01:14:26;;;;;;;15.38;14.18;;;;;;;;;;4910033;29;20231;-89
2022/04/01 01:16:53;;;;;;;14.18;12.90;;;;;;;;;;4906246;29;20191;-88
2022/04/01 01:19:20;;;;;;;13.95;12.77;;;;;;;;;;4907222;29;20195;-89
2022/04/01 01:22:03;;;;;;;16.35;14.75;;;;;;;;;;4906879;29;20196;-88
2022/04/01 01:24:35;;;;;;;16.08;14.73;;;;;;;;;;4916855;29;20179;-90
2022/04/01 01:27:08;;;;;;;14.30;13.20;;;;;;;;;;4915659;29;20230;-90
2022/04/01 01:29:35;;;;;;;15.52;13.98;;;;;;;;;;4904006;29;20199;-90
2022/04/01 01:32:02;;;;;;;16.58;15.07;;;;;;;;;;4914884;29;20222;-88
2022/04/01 01:34:28;;;;;;;17.73;15.95;;;;;;;;;;4897497;29;20291;-88
2022/04/01 01:37:04;;;;;;;17.63;15.95;;;;;;;;;;4921163;29;20241;-90
2022/04/01 01:39:30;;;;;;;16.00;14.60;;;;;;;;;;4926285;29;20579;-88
2022/04/01 01:41:56;;;;;;;16.50;15.00;;;;;;;;;;4927444;29;20189;-88
2022/04/01 01:44:26;;;;;;;15.00;13.80;;;;;;;;;;4915043;29;20387;-89
2022/04/01 01:46:55;;;;;;;16.42;14.93;;;;;;;;;;4902762;29;20211;-88
2022/04/01 01:49:22;;;;;;;13.75;12.55;;;;;;;;;;4928021;29;20328;-88
2022/04/01 01:54:52;;;;;;;12.38;11.07;;;;;;;;;;4873686;29;20284;-88
2022/04/01 01:57:25;;;;;;;13.40;12.35;;;;;;;;;;4901533;29;20228;-89
2022/04/01 01:59:55;;;;;;;17.77;16.27;;;;;;;;;;4925936;29;20195;-88
2022/04/01 02:02:21;;;;;;;14.13;12.93;;;;;;;;;;4916150;29;20195;-88
2022/04/01 02:04:49;;;;;;;16.15;14.48;;;;;;;;;;4911134;29;20220;-88
2022/04/01 02:07:20;;;;;;;12.70;11.63;;;;;;;;;;4932160;29;20184;-89
2022/04/01 02:09:46;;;;;;;16.00;14.55;;;;;;;;;;4925603;29;20188;-90
2022/04/01 02:12:32;;;;;;;13.18;11.85;;;;;;;;;;4919312;23;20292;-87
2022/04/01 02:15:38;;;;;;;13.35;12.05;;;;;;;;;;4909873;29;20227;-87
2022/04/01 02:18:44;;;;;;;13.57;11.40;;;;;;;;;;4912728;29;20233;-88
2022/04/01 02:21:51;;;;;;;12.43;11.43;;;;;;;;;;4916563;29;20210;-87
2022/04/01 02:24:57;;;;;;;10.82;10.00;;;;;;;;;;4893612;29;20219;-87
2022/04/01 02:28:02;;;;;;;11.35;10.38;;;;;;;;;;4909948;29;20188;-88
2022/04/01 02:31:08;;;;;;;10.77;9.77;;;;;;;;;;4899766;29;20231;-88
2022/04/01 02:34:13;;;;;;;9.50;8.80;;;;;;;;;;4890491;29;20885;-88
2022/04/01 02:37:21;;;;;;;10.55;9.35;;;;;;;;;;4895741;29;20722;-87
2022/04/01 02:40:25;;;;;;;11.75;9.93;;;;;;;;;;4892639;29;20196;-87
2022/04/01 02:43:31;;;;;;;9.40;8.60;;;;;;;;;;4887676;29;20231;-88
2022/04/01 02:46:37;;;;;;;9.48;8.68;;;;;;;;;;4894259;29;20219;-88
2022/04/01 02:49:43;;;;;;;9.00;8.38;;;;;;;;;;4883600;29;20204;-87
2022/04/01 02:52:49;;;;;;;8.90;8.07;;;;;;;;;;4904644;29;20272;-88
2022/04/01 02:55:55;;;;;;;8.85;8.00;;;;;;;;;;4895964;29;20196;-87
2022/04/01 02:59:00;;;;;;;7.88;7.38;;;;;;;;;;4901404;29;20223;-86
2022/04/01 03:02:06;;;;;;;8.10;7.40;;;;;;;;;;4898853;29;20591;-87
2022/04/01 03:05:12;;;;;;;8.27;7.68;;;;;;;;;;4903188;29;20558;-87
2022/04/01 03:08:18;;;;;;;8.05;7.45;;;;;;;;;;4902129;29;20629;-89
2022/04/01 03:11:24;;;;;;;7.50;7.00;;;;;;;;;;4909335;29;20715;-90
2022/04/01 03:14:30;;;;;;;7.47;7.07;;;;;;;;;;4926538;29;20675;-89
2022/04/01 03:17:35;;;;;;;7.95;7.50;;;;;;;;;;4928720;29;20567;-89
2022/04/01 03:20:41;;;;;;;6.88;6.55;;;;;;;;;;4912146;29;20227;-90
2022/04/01 03:23:47;;;;;;;8.70;7.90;;;;;;;;;;4899650;29;20274;-90
2022/04/01 03:26:53;;;;;;;8.25;7.15;;;;;;;;;;4921553;29;20290;-90
2022/04/01 03:29:59;;;;;;;6.65;6.10;;;;;;;;;;4917482;29;20220;-90
2022/04/01 03:33:05;;;;;;;7.72;7.13;;;;;;;;;;4927728;29;20195;-89
2022/04/01 03:36:11;;;;;;;7.40;7.00;;;;;;;;;;4918050;29;20199;-89
2022/04/01 03:39:17;;;;;;;9.57;8.68;;;;;;;;;;4902824;29;20184;-89
2022/04/01 03:42:22;;;;;;;7.38;6.75;;;;;;;;;;4902939;29;20220;-89
2022/04/01 03:45:29;;;;;;;6.70;6.28;;;;;;;;;;4916593;29;20192;-88
2022/04/01 03:48:35;;;;;;;6.72;6.30;;;;;;;;;;4905315;29;20196;-90
2022/04/01 03:51:40;;;;;;;7.10;6.70;;;;;;;;;;4919090;29;20222;-91
2022/04/01 03:54:46;;;;;;;7.05;6.55;;;;;;;;;;4936019;29;20212;-88
2022/04/01 03:57:52;;;;;;;7.78;7.28;;;;;;;;;;4945633;29;20184;-89
2022/04/01 04:00:58;;;;;;;9.65;7.80;;;;;;;;;;4940929;29;20184;-87
2022/04/01 04:04:04;;;;;;;7.93;7.43;;;;;;;;;;4931013;29;20199;-89
2022/04/01 04:07:09;;;;;;;9.50;8.90;;;;;;;;;;4915272;29;20196;-88
2022/04/01 04:10:15;;;;;;;7.85;7.05;;;;;;;;;;4926725;29;20195;-86
2022/04/01 04:13:23;;;;;;;9.93;9.10;;;;;;;;;;4934236;29;20608;-89
2022/04/01 04:16:08;;;;;;;8.68;7.90;;;;;;;;;;4932076;29;20196;-89
2022/04/01 04:19:13;;;;;;;9.10;8.35;;;;;;;;;;4929394;29;20210;-89
2022/04/01 04:22:31;;;;;;;5.40;5.20;;;;;;;;;;4925337;29;20216;-91
2022/04/01 04:25:37;;;;;;;9.00;8.20;;;;;;;;;;4938859;28;20300;-90
2022/04/01 04:28:43;;;;;;;7.78;7.15;;;;;;;;;;4927123;29;20260;-89
2022/04/01 04:31:48;;;;;;;8.25;7.75;;;;;;;;;;4919889;29;20196;-90
2022/04/01 04:34:57;;;;;;;5.68;5.40;;;;;;;;;;4922729;29;20202;-89
2022/04/01 04:38:03;;;;;;;6.88;6.30;;;;;;;;;;4912690;29;20217;-90
2022/04/01 04:41:10;;;;;;;7.47;6.78;;;;;;;;;;4919202;29;20200;-90
2022/04/01 04:44:16;;;;;;;5.25;5.05;;;;;;;;;;4913191;29;20278;-89
2022/04/01 04:47:25;;;;;;;6.57;6.28;;;;;;;;;;4930329;29;20196;-90
2022/04/01 04:50:28;;;;;;;6.00;5.80;;;;;;;;;;4918450;29;20203;-89
2022/04/01 04:53:35;;;;;;;6.05;5.65;;;;;;;;;;4894658;29;20282;-89
2022/04/01 04:56:40;;;;;;;5.70;5.30;;;;;;;;;;4932406;29;20176;-89
2022/04/01 04:59:47;;;;;;;6.20;5.82;;;;;;;;;;4911214;29;20445;-90
2022/04/01 05:02:33;;;;;;;7.43;6.88;;;;;;;;;;4900985;29;20524;-90
2022/04/01 05:05:40;;;;;;;7.30;6.80;;;;;;;;;;4924512;29;20274;-90
2022/04/01 05:08:25;;;;;;;7.20;6.60;;;;;;;;;;4915244;29;20222;-92
2022/04/01 05:11:37;;;;;;;6.70;6.25;;;;;;;;;;4925821;29;20325;-90
2022/04/01 05:14:52;;;;;;;7.20;6.80;;;;;;;;;;4913230;29;20235;-89
2022/04/01 05:17:58;;;;;;;7.45;7.05;;;;;;;;;;4920477;29;20251;-91
2022/04/01 05:21:07;;;;;;;7.60;7.03;;;;;;;;;;4922938;29;20287;-92
2022/04/01 05:24:14;;;;;;;9.02;8.27;;;;;;;;;;4929700;29;20277;-92
2022/04/01 05:27:18;;;;;;;8.55;7.85;;;;;;;;;;4930955;29;20198;-91
2022/04/01 05:30:34;;;;;;;7.40;7.00;;;;;;;;;;4934506;29;20212;-92
2022/04/01 05:33:39;;;;;;;8.10;7.50;;;;;;;;;;4925484;29;20256;-92
2022/04/01 05:36:45;;;;;;;6.20;5.90;;;;;;;;;;4921267;29;20195;-92
2022/04/01 05:39:57;;;;;;;6.15;5.85;;;;;;;;;;4923388;29;20259;-91
2022/04/01 05:43:00;;;;;;;6.82;6.47;;;;;;;;;;4924001;29;20188;-89
2022/04/01 05:46:06;;;;;;;6.90;6.43;;;;;;;;;;4921911;29;20215;-91
2022/04/01 05:49:15;;;;;;;6.10;5.90;;;;;;;;;;4915069;29;20180;-90
2022/04/01 05:52:21;;;;;;;5.32;5.13;;;;;;;;;;4920611;29;20268;-90
2022/04/01 05:55:27;;;;;;;8.15;7.65;;;;;;;;;;4918584;29;20184;-91
2022/04/01 05:58:33;;;;;;;7.38;6.88;;;;;;;;;;4920467;29;20191;-91
2022/04/01 06:01:38;;;;;;;6.80;6.50;;;;;;;;;;4935904;29;20643;-90
2022/04/01 06:04:29;;;;;;;7.47;7.07;;;;;;;;;;4920033;29;20272;-91
2022/04/01 06:07:34;;;;;;;7.10;6.70;;;;;;;;;;4907090;29;20203;-90
2022/04/01 06:10:29;;;;;;;7.10;6.70;;;;;;;;;;4931927;29;20223;-89
2022/04/01 06:13:35;;;;;;;7.03;6.60;;;;;;;;;;4930509;29;20280;-89
2022/04/01 06:16:24;;;;;;;5.85;5.35;;;;;;;;;;4922104;29;20212;-91
2022/04/01 06:19:10;;;;;;;5.15;4.90;;;;;;;;;;4919572;29;20207;-91
2022/04/01 06:22:03;;;;;;;6.60;6.20;;;;;;;;;;4915825;29;20227;-90
2022/04/01 06:25:18;;;;;;;5.70;5.30;;;;;;;;;;4916095;29;20708;-88
2022/04/01 06:28:26;;;;;;;6.00;5.60;;;;;;;;;;4916972;29;20250;-89
2022/04/01 06:31:33;;;;;;;4.10;4.00;;;;;;;;;;4560182;29;10000601;-90
2022/04/01 06:34:38;;;;;;;6.90;4.97;;;;;;;;;;4911312;29;20642;-91
2022/04/01 06:37:50;;;;;;;5.13;4.93;;;;;;;;;;4926269;29;20192;-90
2022/04/01 06:40:36;;;;;;;5.68;5.15;;;;;;;;;;4918551;29;20238;-90
2022/04/01 06:43:49;;;;;;;4.25;3.92;;;;;;;;;;4931013;29;20259;-90
2022/04/01 06:46:51;;;;;;;4.65;4.35;;;;;;;;;;4922062;29;20249;-91
2022/04/01 06:49:57;;;;;;;5.72;5.32;;;;;;;;;;4913978;29;20203;-91
2022/04/01 06:53:03;;;;;;;3.65;3.65;;;;;;;;;;4934057;29;20571;-91
2022/04/01 06:56:09;;;;;;;5.32;5.13;;;;;;;;;;4924862;29;20315;-92
2022/04/01 06:59:14;;;;;;;5.53;5.18;;;;;;;;;;4922416;29;20278;-91
2022/04/01 07:02:20;;;;;;;6.68;4.63;;;;;;;;;;4923542;29;20191;-91
2022/04/01 07:05:27;;;;;;;4.88;4.60;;;;;;;;;;4913804;29;20279;-91
2022/04/01 07:08:32;;;;;;;6.43;5.43;;;;;;;;;;4923460;29;20183;-92
2022/04/01 07:11:38;;;;;;;4.50;4.40;;;;;;;;;;4924149;29;20228;-92
2022/04/01 07:14:44;;;;;;;7.03;6.72;;;;;;;;;;4917044;29;20215;-88
2022/04/01 07:17:49;;;;;;;4.88;4.68;;;;;;;;;;4908585;29;20207;-90
2022/04/01 07:20:55;;;;;;;4.65;4.50;;;;;;;;;;4905577;29;20189;-87
2022/04/01 07:24:02;;;;;;;4.82;4.57;;;;;;;;;;4902652;29;20191;-90
2022/04/01 07:27:08;;;;;;;4.95;4.75;;;;;;;;;;4916463;29;20208;-89
2022/04/01 07:30:13;;;;;;;4.65;4.55;;;;;;;;;;4919251;29;20220;-90
2022/04/01 07:33:19;;;;;;;4.80;4.63;;;;;;;;;;4913356;29;20223;-89
2022/04/01 07:36:25;;;;;;;4.00;3.80;;;;;;;;;;4906193;29;20219;-90
2022/04/01 07:39:31;;;;;;;4.03;3.83;;;;;;;;;;4928075;29;20410;-90
2022/04/01 07:42:38;;;;;;;4.10;4.00;;;;;;;;;;4925555;29;20613;-89
2022/04/01 07:45:42;;;;;;;4.45;4.15;;;;;;;;;;4919867;29;20578;-86
2022/04/01 07:48:48;;;;;;;5.68;5.38;;;;;;;;;;4911584;29;20204;-90
2022/04/01 07:51:54;;;;;;;5.32;4.97;;;;;;;;;;4911466;29;20272;-91
2022/04/01 07:55:01;;;;;;;5.10;4.93;;;;;;;;;;4912267;29;20644;-90
2022/04/01 07:58:06;;;;;;;5.30;5.03;;;;;;;;;;4900498;29;20189;-90
2022/04/01 08:01:12;;;;;;;4.13;4.13;;;;;;;;;;4908530;29;20259;-90
2022/04/01 08:04:18;;;;;;;5.18;4.68;;;;;;;;;;4924770;29;20191;-88
2022/04/01 08:07:30;;;;;;;3.33;3.25;;;;;;;;;;4922340;29;20216;-89
2022/04/01 08:10:41;;;;;;;5.43;5.18;;;;;;;;;;4920262;29;20193;-90
2022/04/01 08:13:45;;;;;;;4.97;4.65;;;;;;;;;;4923104;29;20219;-89
2022/04/01 08:16:50;;;;;;;4.50;3.90;;;;;;;;;;4926430;29;20211;-89
2022/04/01 08:19:59;;;;;;;4.07;3.95;;;;;;;;;;4924816;29;20216;-87
2022/04/01 08:23:08;;;;;;;3.95;3.78;;;;;;;;;;4928241;29;20184;-88
2022/04/01 08:26:14;;;;;;;5.20;4.78;;;;;;;;;;4924031;29;20176;-89
2022/04/01 08:29:22;;;;;;;3.55;3.42;;;;;;;;;;4925569;29;20192;-90
2022/04/01 08:32:26;;;;;;;4.70;4.50;;;;;;;;;;4923116;29;20211;-90
2022/04/01 08:35:33;;;;;;;4.25;4.15;;;;;;;;;;4920791;29;20195;-89
2022/04/01 08:38:38;;;;;;;4.80;4.50;;;;;;;;;;4919686;29;20252;-88
2022/04/01 08:41:43;;;;;;;4.35;4.25;;;;;;;;;;4919837;29;20189;-88
2022/04/01 08:44:49;;;;;;;4.53;4.22;;;;;;;;;;4920974;29;20215;-89
2022/04/01 08:47:55;;;;;;;4.88;4.68;;;;;;;;;;4921644;29;20192;-89
2022/04/01 08:51:01;;;;;;;6.80;6.20;;;;;;;;;;4916636;29;20182;-87
2022/04/01 08:54:07;;;;;;;4.50;4.10;;;;;;;;;;4919116;29;20215;-89
2022/04/01 08:57:13;;;;;;;3.42;3.33;;;;;;;;;;4921351;29;20571;-87
2022/04/01 09:00:19;;;;;;;5.88;5.47;;;;;;;;;;4916634;29;20620;-89
2022/04/01 09:03:06;;;;;;;3.85;3.65;;;;;;;;;;4915176;29;20196;-88
2022/04/01 09:05:32;;;;;;;4.20;4.10;;;;;;;;;;4924524;29;20207;-89
2022/04/01 09:08:01;;;;;;;4.68;4.28;;;;;;;;;;4901729;29;20228;-90
2022/04/01 09:11:17;;;;;;;4.43;4.22;;;;;;;;;;4921716;29;20240;-90
2022/04/01 09:14:24;;;;;;;3.35;3.20;;;;;;;;;;4914311;29;20647;-91
2022/04/01 09:17:33;;;;;;;3.90;3.80;;;;;;;;;;4923390;29;20214;-92
2022/04/01 09:20:38;;;;;;;5.05;4.75;;;;;;;;;;4924019;29;20195;-91
2022/04/01 09:23:44;;;;;;;3.70;3.60;;;;;;;;;;4921629;29;20227;-91
2022/04/01 09:26:55;;;;;;;3.83;3.38;;;;;;;;;;4921992;29;20185;-89
2022/04/01 09:30:00;;;;;;;3.78;3.67;;;;;;;;;;4924057;29;20196;-90
2022/04/01 09:33:09;;;;;;;4.10;3.92;;;;;;;;;;4923290;29;20247;-89
2022/04/01 09:36:17;;;;;;;4.47;4.28;;;;;;;;;;4926777;29;20255;-89
2022/04/01 09:39:06;;;;;;;4.13;4.03;;;;;;;;;;4921051;29;20203;-91
2022/04/01 09:42:12;;;;;;;4.82;4.53;;;;;;;;;;4929681;29;20255;-89
2022/04/01 09:45:17;;;;;;;4.45;4.05;;;;;;;;;;4924918;29;20283;-91
2022/04/01 09:48:51;;;;;;;3.75;3.63;;;;;;;;;;4929875;29;20196;-91
2022/04/01 09:51:37;;;;;;;3.33;3.22;;;;;;;;;;4916599;29;20191;-90
2022/04/01 09:54:43;;;;;;;4.28;4.07;;;;;;;;;;4916617;29;20195;-89
2022/04/01 09:57:48;;;;;;;4.30;4.22;;;;;;;;;;4915437;29;20255;-88
2022/04/01 10:00:56;;;;;;;4.10;3.80;;;;;;;;;;4573840;29;10001489;-86
2022/04/01 10:04:00;;;;;;;4.63;4.35;;;;;;;;;;4917469;29;20208;-90
2022/04/01 10:07:06;;;;;;;4.35;4.25;;;;;;;;;;4913502;29;20271;-88
2022/04/01 10:10:12;;;;;;;7.60;5.63;;;;;;;;;;4913642;29;20180;-88
2022/04/01 10:13:18;;;;;;;4.30;4.00;;;;;;;;;;4916800;29;20229;-89
2022/04/01 10:16:27;;;;;;;5.22;4.93;;;;;;;;;;4914566;29;20199;-90
2022/04/01 10:19:50;;;;;;;4.60;4.40;;;;;;;;;;4918874;29;20188;-86
2022/04/01 10:22:42;;;;;;;3.75;3.65;;;;;;;;;;4924530;29;20188;-91
2022/04/01 10:25:53;;;;;;;3.58;3.47;;;;;;;;;;4926507;29;20228;-89
2022/04/01 10:28:33;;;;;;;4.43;4.10;;;;;;;;;;4994943;23;20242;-83
2022/04/01 10:31:06;;;;;;;5.23;4.83;;;;;;;;;;4932715;29;20192;-84
2022/04/01 10:33:35;;;;;;;4.32;3.97;;;;;;;;;;4939918;29;20514;-82
2022/04/01 10:36:22;;;;;;;4.70;4.40;;;;;;;;;;4931764;29;20194;-81
2022/04/01 10:39:00;;;;;;;4.30;4.15;;;;;;;;;;4932681;29;20241;-83
2022/04/01 10:41:29;;;;;;;5.00;4.55;;;;;;;;;;4935593;29;20245;-81
2022/04/01 10:43:55;;;;;;;4.15;3.85;;;;;;;;;;4930224;29;20180;-81
2022/04/01 10:46:24;;;;;;;5.15;4.82;;;;;;;;;;4936402;29;20480;-82
2022/04/01 10:52:09;;;;;;;4.68;4.25;;;;;;;;;;4941159;29;20720;-84
2022/04/01 10:54:38;;;;;;;4.60;4.50;;;;;;;;;;4926698;29;20278;-84
2022/04/01 10:57:06;;;;;;;5.15;4.93;;;;;;;;;;4924304;29;20187;-84
2022/04/01 10:59:39;;;;;;;5.55;5.15;;;;;;;;;;4922356;29;20213;-82
2022/04/01 11:02:15;;;;;;;5.38;5.18;;;;;;;;;;4931347;29;20175;-83
2022/04/01 11:04:45;;;;;;;3.47;3.42;;;;;;;;;;4927027;29;20187;-81
2022/04/01 11:10:25;;;;;;;4.65;4.45;;;;;;;;;;4931107;29;20211;-84
2022/04/01 11:12:52;;;;;;;4.95;4.75;;;;;;;;;;4925247;29;20240;-81
2022/04/01 11:15:38;;;;;;;4.50;4.28;;;;;;;;;;4945986;29;20183;-82
2022/04/01 11:18:09;;;;;;;4.65;4.38;;;;;;;;;;4919286;29;20274;-83
2022/04/01 11:20:39;;;;;;;5.60;5.22;;;;;;;;;;4912317;29;20199;-83
2022/04/01 11:23:19;;;;;;;6.18;5.55;;;;;;;;;;4930204;29;20202;-83
2022/04/01 11:25:50;;;;;;;4.93;4.72;;;;;;;;;;4932012;29;20219;-83
2022/04/01 11:28:20;;;;;;;6.03;5.57;;;;;;;;;;4913897;29;20183;-84
2022/04/01 11:30:50;;;;;;;4.43;4.15;;;;;;;;;;4927347;29;20247;-84
2022/04/01 11:33:17;;;;;;;5.65;4.50;;;;;;;;;;4941612;29;20292;-81
2022/04/01 11:35:53;;;;;;;6.32;5.82;;;;;;;;;;4940530;29;20305;-86
2022/04/01 11:38:24;;;;;;;5.80;5.30;;;;;;;;;;4567411;29;9999694;-85
2022/04/01 11:40:55;;;;;;;12.15;10.45;;;;;;;;;;4910541;29;20440;-82
2022/04/01 11:43:22;;;;;;;6.03;5.63;;;;;;;;;;4938551;29;20195;-82
2022/04/01 11:45:51;;;;;;;4.88;4.78;;;;;;;;;;4943532;29;20231;-86
2022/04/01 11:48:18;;;;;;;5.82;5.20;;;;;;;;;;4924185;29;20213;-80
2022/04/01 11:50:47;;;;;;;5.70;5.40;;;;;;;;;;4924826;29;20219;-83
2022/04/01 11:53:25;;;;;;;6.25;5.28;;;;;;;;;;4927790;29;20275;-83
2022/04/01 11:55:54;;;;;;;4.85;4.53;;;;;;;;;;4923965;29;20191;-86
2022/04/01 11:58:22;;;;;;;7.50;6.80;;;;;;;;;;4937076;29;20183;-84
2022/04/01 12:01:08;;;;;;;5.95;5.57;;;;;;;;;;4963428;23;20254;-89
2022/04/01 12:04:26;;;;;;;5.65;5.30;;;;;;;;;;4937799;29;20525;-91
2022/04/01 12:10:39;;;;;;;7.05;6.55;;;;;;;;;;4944449;29;20748;-85
2022/04/01 12:13:53;;;;;;;9.23;8.02;;;;;;;;;;4933224;29;20212;-90
2022/04/01 12:17:11;;;;;;;6.78;6.30;;;;;;;;;;4929853;29;20190;-89
2022/04/01 12:20:20;;;;;;;5.75;5.55;;;;;;;;;;4931668;23;20738;-85
2022/04/01 12:22:51;;;;;;;5.88;5.47;;;;;;;;;;4910799;29;20272;-82
2022/04/01 12:25:20;;;;;;;5.07;4.88;;;;;;;;;;4921390;29;20474;-82
2022/04/01 12:27:53;;;;;;;5.32;5.13;;;;;;;;;;4919087;29;20187;-80
2022/04/01 12:30:33;;;;;;;6.03;5.72;;;;;;;;;;4914937;29;20228;-83
2022/04/01 12:33:00;;;;;;;7.03;6.57;;;;;;;;;;4912397;29;20223;-84
2022/04/01 12:35:27;;;;;;;44.15;29.23;;;;;;;;;;4928634;29;20238;-82
2022/04/01 12:38:12;;;;;;;6.18;5.68;;;;;;;;;;4925886;29;20289;-84
2022/04/01 12:40:51;;;;;;;6.53;6.03;;;;;;;;;;4915482;29;20286;-79
2022/04/01 12:43:36;;;;;;;7.70;7.18;;;;;;;;;;4915524;29;20196;-84
2022/04/01 12:46:04;;;;;;;5.93;5.43;;;;;;;;;;4915129;29;20279;-82
2022/04/01 12:48:30;;;;;;;6.90;6.45;;;;;;;;;;4916656;29;20403;-82
2022/04/01 12:51:02;;;;;;;5.72;5.20;;;;;;;;;;4915602;29;20172;-83
2022/04/01 12:53:30;;;;;;;7.93;6.85;;;;;;;;;;4918719;29;20271;-83
2022/04/01 12:56:18;;;;;;;8.23;7.50;;;;;;;;;;4922583;29;20176;-83
2022/04/01 12:58:51;;;;;;;7.15;6.82;;;;;;;;;;4906576;29;20310;-81
2022/04/01 13:01:27;;;;;;;6.65;6.22;;;;;;;;;;4902948;29;20663;-82
2022/04/01 13:03:53;;;;;;;6.70;6.30;;;;;;;;;;4913192;29;20675;-79
2022/04/01 13:06:23;;;;;;;6.25;5.95;;;;;;;;;;4930390;29;20303;-82
2022/04/01 13:08:56;;;;;;;7.00;6.70;;;;;;;;;;4910601;29;20196;-81
2022/04/01 13:11:23;;;;;;;7.75;7.30;;;;;;;;;;4892927;29;20200;-79
2022/04/01 13:13:53;;;;;;;7.15;6.75;;;;;;;;;;4914551;29;20215;-80
2022/04/01 13:16:34;;;;;;;7.64;7.02;;;;;;;;;;4832884;29;10001396;-79
2022/04/01 13:19:19;;;;;;;9.27;8.23;;;;;;;;;;4912116;29;20852;-78
2022/04/01 13:21:45;;;;;;;8.38;7.72;;;;;;;;;;4579378;29;10000829;-80
2022/04/01 13:24:11;;;;;;;9.38;8.35;;;;;;;;;;4907494;29;20769;-81
2022/04/01 13:26:37;;;;;;;8.93;7.95;;;;;;;;;;4908500;29;20266;-80
2022/04/01 13:29:04;;;;;;;10.15;9.45;;;;;;;;;;4907179;29;20183;-81
2022/04/01 13:31:30;;;;;;;9.63;8.93;;;;;;;;;;4910231;29;20293;-80
2022/04/01 13:33:56;;;;;;;9.82;9.07;;;;;;;;;;4906788;29;20223;-79
2022/04/01 13:36:23;;;;;;;7.43;6.97;;;;;;;;;;4915238;29;20178;-79
2022/04/01 13:38:50;;;;;;;11.55;10.38;;;;;;;;;;4920498;29;20968;-80
2022/04/01 13:41:16;;;;;;;8.32;7.57;;;;;;;;;;4912730;29;20282;-80
2022/04/01 13:43:42;;;;;;;7.93;7.32;;;;;;;;;;4932681;29;20188;-80
2022/04/01 13:46:08;;;;;;;8.73;7.93;;;;;;;;;;4913185;29;20203;-80
2022/04/01 13:48:34;;;;;;;8.32;7.72;;;;;;;;;;4932360;29;20179;-81
2022/04/01 13:51:02;;;;;;;8.67;8.10;;;;;;;;;;4912695;29;20198;-80
2022/04/01 13:53:28;;;;;;;8.63;7.87;;;;;;;;;;4569098;29;10000212;-80
2022/04/01 13:55:54;;;;;;;9.35;8.40;;;;;;;;;;4893966;29;20179;-81
2022/04/01 13:58:20;;;;;;;8.57;7.78;;;;;;;;;;4891310;29;20232;-82
2022/04/01 14:00:46;;;;;;;5.73;5.23;;;;;;;;;;4923088;29;20463;-79
2022/04/01 14:03:12;;;;;;;7.65;7.13;;;;;;;;;;4900754;29;20430;-82
2022/04/01 14:05:38;;;;;;;6.50;5.90;;;;;;;;;;4914244;29;20690;-80
2022/04/01 14:08:05;;;;;;;5.43;5.18;;;;;;;;;;4931456;29;20451;-83
2022/04/01 14:10:31;;;;;;;6.25;5.85;;;;;;;;;;4906383;29;20199;-83
2022/04/01 14:12:57;;;;;;;5.25;5.03;;;;;;;;;;4901864;29;20278;-82
2022/04/01 14:15:24;;;;;;;6.53;6.13;;;;;;;;;;4927900;29;20580;-83
2022/04/01 14:17:50;;;;;;;7.18;6.72;;;;;;;;;;4918173;29;20222;-84
2022/04/01 14:20:17;;;;;;;8.40;7.70;;;;;;;;;;4560809;29;10000265;-82
2022/04/01 14:22:43;;;;;;;6.93;6.45;;;;;;;;;;4902871;29;20181;-82
2022/04/01 14:25:09;;;;;;;7.25;6.78;;;;;;;;;;4930321;29;20394;-85
2022/04/01 14:27:36;;;;;;;6.05;5.55;;;;;;;;;;4912003;29;20220;-82
2022/04/01 14:30:18;;;;;;;7.40;7.00;;;;;;;;;;4930896;29;20761;-83
2022/04/01 14:32:47;;;;;;;9.57;8.88;;;;;;;;;;4902229;29;20208;-83
2022/04/01 14:35:13;;;;;;;6.57;5.97;;;;;;;;;;4900253;29;20232;-81
2022/04/01 14:37:40;;;;;;;6.07;5.72;;;;;;;;;;4897819;29;20204;-83
2022/04/01 14:40:07;;;;;;;8.73;6.90;;;;;;;;;;4912882;29;20234;-80
2022/04/01 14:42:33;;;;;;;7.68;7.18;;;;;;;;;;4913525;29;20172;-81
2022/04/01 14:45:02;;;;;;;7.80;7.20;;;;;;;;;;4917542;29;20254;-82
2022/04/01 14:47:28;;;;;;;7.85;7.25;;;;;;;;;;4920142;29;20192;-83
2022/04/01 14:49:54;;;;;;;8.85;8.05;;;;;;;;;;4934098;29;20199;-81
2022/04/01 14:52:21;;;;;;;9.82;9.02;;;;;;;;;;4927169;29;20227;-83
2022/04/01 14:54:48;;;;;;;11.80;10.35;;;;;;;;;;4927227;29;20191;-81
2022/04/01 14:57:15;;;;;;;10.45;9.55;;;;;;;;;;4902479;29;20184;-83
2022/04/01 14:59:41;;;;;;;10.75;9.77;;;;;;;;;;4916796;29;20401;-82
2022/04/01 15:02:07;;;;;;;10.07;9.27;;;;;;;;;;4913773;29;20287;-81
2022/04/01 15:04:33;;;;;;;13.07;11.85;;;;;;;;;;4894086;29;20192;-82
2022/04/01 15:06:59;;;;;;;11.77;10.63;;;;;;;;;;4914991;29;20215;-82
2022/04/01 15:09:26;;;;;;;8.90;8.20;;;;;;;;;;4911074;29;20192;-80
2022/04/01 15:11:52;;;;;;;9.70;8.95;;;;;;;;;;4916063;29;20579;-79
2022/04/01 15:14:18;;;;;;;9.90;9.10;;;;;;;;;;4909964;29;20196;-80
2022/04/01 15:16:44;;;;;;;10.52;9.68;;;;;;;;;;4891791;29;20547;-82
2022/04/01 15:19:10;;;;;;;9.13;8.40;;;;;;;;;;4920023;29;20228;-81
2022/04/01 15:21:36;;;;;;;11.10;10.30;;;;;;;;;;4911909;29;20204;-82
2022/04/01 15:24:03;;;;;;;11.13;10.35;;;;;;;;;;4954846;23;20511;-82
2022/04/01 15:26:29;;;;;;;11.00;9.95;;;;;;;;;;4919330;29;20267;-80
2022/04/01 15:28:55;;;;;;;14.38;13.20;;;;;;;;;;4887639;29;20204;-84
2022/04/01 15:31:22;;;;;;;10.03;9.30;;;;;;;;;;4891937;29;20275;-82
2022/04/01 15:33:48;;;;;;;10.85;9.95;;;;;;;;;;4892061;29;21058;-81
2022/04/01 15:36:17;;;;;;;14.48;12.35;;;;;;;;;;4927060;29;20188;-81
2022/04/01 15:38:45;;;;;;;13.52;12.25;;;;;;;;;;4891003;29;20192;-82
2022/04/01 15:41:11;;;;;;;13.48;12.20;;;;;;;;;;4889497;29;20196;-83
2022/04/01 15:43:38;;;;;;;13.43;11.98;;;;;;;;;;4929213;28;20266;-82
2022/04/01 15:46:06;;;;;;;13.15;12.15;;;;;;;;;;4899014;29;20248;-83
2022/04/01 15:48:33;;;;;;;12.43;11.23;;;;;;;;;;4918934;29;20495;-82
2022/04/01 15:51:00;;;;;;;13.43;12.32;;;;;;;;;;4896627;29;20184;-81
2022/04/01 15:53:26;;;;;;;14.02;12.85;;;;;;;;;;4891790;29;20413;-82
2022/04/01 15:55:52;;;;;;;17.27;12.43;;;;;;;;;;4909389;29;20199;-85
2022/04/01 15:58:21;;;;;;;14.17;12.87;;;;;;;;;;4917986;29;20491;-82
2022/04/01 16:00:47;;;;;;;15.75;14.15;;;;;;;;;;4891270;29;20484;-84
2022/04/01 16:03:14;;;;;;;12.25;11.10;;;;;;;;;;4913529;29;20621;-84
2022/04/01 16:05:44;;;;;;;18.25;16.40;;;;;;;;;;4894173;29;20579;-82
2022/04/01 16:08:12;;;;;;;15.20;14.00;;;;;;;;;;4889539;29;20196;-83
2022/04/01 16:10:40;;;;;;;17.70;16.08;;;;;;;;;;4908541;29;20267;-84
2022/04/01 16:13:09;;;;;;;14.38;13.18;;;;;;;;;;4913836;29;20275;-84
2022/04/01 16:15:36;;;;;;;17.63;16.08;;;;;;;;;;4908176;29;20254;-80
2022/04/01 16:18:03;;;;;;;16.42;14.73;;;;;;;;;;4913571;29;20548;-82
2022/04/01 16:20:29;;;;;;;18.20;15.20;;;;;;;;;;4911005;29;20167;-83
2022/04/01 16:22:55;;;;;;;19.73;17.83;;;;;;;;;;4908067;29;20687;-83
2022/04/01 16:25:21;;;;;;;19.55;17.75;;;;;;;;;;4903958;29;20647;-81
2022/04/01 16:27:47;;;;;;;17.52;15.95;;;;;;;;;;4892010;29;20874;-84
2022/04/01 16:30:14;;;;;;;20.13;18.05;;;;;;;;;;4898007;29;20250;-83
2022/04/01 16:32:40;;;;;;;19.33;17.48;;;;;;;;;;4896483;29;20207;-87
2022/04/01 16:35:10;;;;;;;20.80;18.83;;;;;;;;;;4888476;29;20267;-85
2022/04/01 16:37:36;;;;;;;21.48;19.20;;;;;;;;;;4894852;29;20766;-84
2022/04/01 16:40:05;;;;;;;18.33;16.40;;;;;;;;;;4887940;29;20209;-81
2022/04/01 16:42:31;;;;;;;19.20;16.35;;;;;;;;;;4889514;29;20955;-81
2022/04/01 16:44:57;;;;;;;22.13;19.75;;;;;;;;;;4875642;29;20555;-82
2022/04/01 16:47:24;;;;;;;33.55;28.27;;;;;;;;;;4888869;29;20578;-82
2022/04/01 16:49:53;;;;;;;21.60;17.73;;;;;;;;;;4877196;29;20368;-83
2022/04/01 16:52:20;;;;;;;19.85;17.85;;;;;;;;;;4891675;29;20276;-83
2022/04/01 16:54:46;;;;;;;21.60;19.63;;;;;;;;;;4858451;29;20200;-84
2022/04/01 16:57:12;;;;;;;18.02;16.20;;;;;;;;;;4855469;29;20504;-83
2022/04/01 16:59:39;;;;;;;23.85;19.60;;;;;;;;;;4865146;29;20196;-83
2022/04/01 17:02:06;;;;;;;23.77;21.17;;;;;;;;;;4872992;29;20187;-83
2022/04/01 17:04:36;;;;;;;24.05;20.55;;;;;;;;;;4891850;29;20200;-82
2022/04/01 17:12:31;;;;;;;19.92;17.83;;;;;;;;;;4892956;29;20317;-81
2022/04/01 17:14:58;;;;;;;24.80;20.70;;;;;;;;;;4891759;29;20883;-82
2022/04/01 17:17:31;;;;;;;22.90;20.38;;;;;;;;;;4552017;29;10001271;-82
2022/04/01 17:19:58;;;;;;;22.02;19.88;;;;;;;;;;4877615;29;20221;-84
2022/04/01 17:22:25;;;;;;;25.02;21.20;;;;;;;;;;4872111;29;20227;-83
2022/04/01 17:24:51;;;;;;;26.25;23.45;;;;;;;;;;4890832;29;20276;-81
2022/04/01 17:27:18;;;;;;;24.38;21.88;;;;;;;;;;4873400;29;20308;-85
2022/04/01 17:29:44;;;;;;;24.60;22.20;;;;;;;;;;4876444;29;20180;-83
2022/04/01 17:32:16;;;;;;;20.45;18.38;;;;;;;;;;4890094;29;20232;-81
2022/04/01 17:34:42;;;;;;;18.30;16.27;;;;;;;;;;4884757;29;20782;-83
2022/04/01 17:37:11;;;;;;;18.40;16.50;;;;;;;;;;4873171;29;20192;-84
2022/04/01 17:39:39;;;;;;;19.05;17.15;;;;;;;;;;4890281;29;20173;-84
2022/04/01 17:42:13;;;;;;;20.38;18.27;;;;;;;;;;4889342;29;20259;-84
2022/04/01 17:44:43;;;;;;;25.90;21.40;;;;;;;;;;4870922;29;20272;-82
2022/04/01 17:47:10;;;;;;;24.52;21.42;;;;;;;;;;4897579;29;20192;-84